Terminal Aerodrome Forecast
Issued by NWS

Home | Current Version | Previous Version | Text Only | Print | Product List | Glossary On
Versions: 1 2 3 4 5 6 7 8 9 10 11 12 13 14 15
000
FTUS46 KOTX 250211 AAA
TAFPUW
TAF AMD
KPUW 250211Z 2502/2524 09007KT 5SM -RA BR BKN060 OVC070
     FM250300 09006KT P6SM SCT040 OVC080
     FM250600 09006KT P6SM OVC200
     FM251000 10010KT P6SM SCT200
     FM252100 17014G23KT P6SM VCSH SCT050 BKN090 BKN120=

USA.gov is the U.S. government's official web portal to all federal, state and local government web resources and services.